Villa de la Rosa, Puerto Rico
Current Conditions -  °F | °C
As of 4:50 PM on Saturday 20 Dec 2014 (Local Time) from TJPS Reporting Station
Few Clouds Few Clouds  
Wind Chill: 84°   Ceiling: Unl
Heat Index: 90°   Visibility: 10mi
Dew Point: 72°   Wind: 12mph
Humidity: 66%   Direction: 140°SE
Pressure: 29.92"   Gusts: NA
Location:  18.1439°N, 66.2725°W
Report Text: TJPS 202050Z 14010KT 10SM FEW030 29/22 A2992
Loading
Personal Weather Stations






























Interactive Weather Map New forecast layout! Learn more

10-Day Weather Forecast

Advertisements
Track Severe Weather on mobile